createdAt,value
2019-03-19T00:01:06.445Z,26.70
2019-03-19T00:05:13.600Z,25.03
2019-03-19T00:09:19.877Z,29.27
2019-03-19T00:13:29.450Z,27.57
2019-03-19T00:17:57.385Z,26.73
2019-03-19T00:22:07.726Z,21.80
2019-03-19T00:26:14.064Z,19.70
2019-03-19T00:30:20.672Z,26.67
2019-03-19T00:34:28.939Z,22.43
2019-03-19T00:38:35.719Z,26.07
2019-03-19T00:42:42.111Z,24.07
2019-03-19T00:46:51.181Z,24.07
2019-03-19T00:51:02.185Z,29.47
2019-03-19T00:55:09.221Z,25.80
2019-03-19T00:59:15.533Z,29.37
2019-03-19T01:03:23.274Z,30.10
2019-03-19T01:07:32.127Z,27.13
2019-03-19T01:11:38.528Z,27.83
2019-03-19T01:15:44.912Z,29.47
2019-03-19T01:19:52.094Z,26.50
2019-03-19T01:23:58.437Z,24.37
2019-03-19T01:28:04.999Z,23.13
2019-03-19T01:32:11.280Z,26.73
2019-03-19T01:36:17.873Z,23.23
2019-03-19T01:40:26.490Z,20.60
2019-03-19T01:44:34.721Z,24.67
2019-03-19T01:48:42.233Z,28.07
2019-03-19T01:56:59.254Z,28.30
2019-03-19T02:01:07.972Z,24.73
2019-03-19T02:05:18.438Z,28.60
2019-03-19T02:09:28.213Z,21.43
2019-03-19T02:13:34.549Z,26.00
2019-03-19T02:17:42.222Z,21.90
2019-03-19T02:21:48.486Z,21.83
2019-03-19T02:25:54.966Z,29.40
2019-03-19T02:30:01.714Z,27.77
2019-03-19T02:34:11.089Z,21.20
2019-03-19T02:38:18.446Z,20.50
2019-03-19T02:42:28.802Z,23.27
2019-03-19T02:46:35.165Z,23.93
2019-03-19T02:54:53.675Z,20.63
2019-03-19T02:59:00.352Z,18.80
2019-03-19T03:03:06.952Z,21.50
2019-03-19T03:07:14.462Z,26.57
2019-03-19T03:11:21.925Z,18.87
2019-03-19T03:15:28.380Z,18.47
2019-03-19T03:19:34.776Z,16.40
2019-03-19T03:23:41.638Z,22.70
2019-03-19T03:31:56.131Z,25.83
2019-03-19T03:36:03.775Z,23.97
2019-03-19T03:40:11.624Z,24.73
2019-03-19T03:44:18.100Z,19.50
2019-03-19T03:48:26.400Z,17.97
2019-03-19T03:52:34.124Z,20.50
2019-03-19T03:56:40.590Z,14.33
2019-03-19T04:00:46.766Z,17.10
2019-03-19T04:04:53.122Z,23.13
2019-03-19T04:08:59.745Z,19.87
2019-03-19T04:13:45.876Z,26.70
2019-03-19T04:17:53.456Z,27.20
2019-03-19T04:21:59.833Z,27.83
2019-03-19T04:26:06.194Z,22.77
2019-03-19T04:30:12.695Z,24.30
2019-03-19T04:34:19.023Z,25.97
2019-03-19T04:38:26.246Z,27.70
2019-03-19T04:42:33.734Z,24.50
2019-03-19T04:46:40.107Z,27.67
2019-03-19T04:50:46.483Z,23.40
2019-03-19T04:54:54.458Z,20.13
2019-03-19T04:59:01.876Z,22.20
2019-03-19T05:03:12.580Z,21.63
2019-03-19T05:07:19.307Z,18.77
2019-03-19T05:11:27.200Z,22.73
2019-03-19T05:15:33.411Z,23.23
2019-03-19T05:19:39.888Z,20.40
2019-03-19T05:23:46.178Z,21.30
2019-03-19T05:27:54.089Z,19.83
2019-03-19T05:32:00.409Z,16.67
2019-03-19T05:36:07.607Z,24.37
2019-03-19T05:40:14.247Z,22.73
2019-03-19T05:44:20.863Z,23.30
2019-03-19T05:48:27.173Z,21.60
2019-03-19T05:52:33.715Z,20.60
2019-03-19T05:56:41.731Z,22.53
2019-03-19T06:00:48.123Z,31.47
2019-03-19T06:04:54.529Z,29.07
2019-03-19T06:09:01.442Z,30.07
2019-03-19T06:13:34.081Z,27.43
2019-03-19T06:17:40.495Z,30.47
2019-03-19T06:21:46.982Z,26.30
2019-03-19T06:25:53.519Z,25.73
2019-03-19T06:29:59.840Z,27.13
2019-03-19T06:34:07.477Z,34.23
2019-03-19T06:42:20.683Z,27.50
2019-03-19T06:46:27.057Z,21.33
2019-03-19T06:50:33.072Z,21.20
2019-03-19T06:54:43.294Z,21.17
2019-03-19T06:58:52.796Z,25.10
2019-03-19T07:02:59.179Z,33.10
2019-03-19T07:07:05.552Z,22.47
2019-03-19T07:11:11.885Z,11.27
2019-03-19T07:15:38.991Z,25.00
2019-03-19T07:19:45.341Z,29.70
2019-03-19T07:23:51.687Z,24.17
2019-03-19T07:27:59.365Z,21.97
2019-03-19T07:32:05.742Z,20.47
2019-03-19T07:36:12.124Z,32.30
2019-03-19T07:40:41.564Z,28.17
2019-03-19T07:44:47.963Z,25.93
2019-03-19T07:48:54.524Z,20.27
2019-03-19T07:53:04.099Z,30.80
2019-03-19T07:57:10.500Z,25.90
2019-03-19T08:01:21.028Z,30.10
2019-03-19T08:05:33.082Z,22.13
2019-03-19T08:09:35.982Z,29.87
2019-03-19T08:13:43.641Z,39.50
2019-03-19T08:17:52.682Z,33.70
2019-03-19T08:22:00.612Z,26.40
2019-03-19T08:31:41.078Z,24.93
2019-03-19T08:35:47.394Z,21.97
2019-03-19T08:39:56.679Z,27.73
2019-03-19T08:44:04.108Z,20.40
2019-03-19T08:48:10.558Z,22.97
2019-03-19T08:52:16.921Z,23.50
2019-03-19T08:56:44.212Z,20.33
2019-03-19T09:00:51.171Z,20.77
2019-03-19T09:04:57.687Z,15.10
2019-03-19T09:09:06.693Z,28.80
2019-03-19T09:13:13.926Z,34.67
2019-03-19T09:17:23.568Z,20.57
2019-03-19T09:21:29.967Z,23.43
2019-03-19T09:25:36.274Z,25.83
2019-03-19T09:29:47.038Z,23.67
2019-03-19T09:33:53.395Z,21.80
2019-03-19T09:38:00.698Z,24.17
2019-03-19T09:42:07.027Z,27.93
2019-03-19T09:46:13.472Z,20.20
2019-03-19T09:50:20.864Z,27.23
2019-03-19T09:54:28.373Z,20.60
2019-03-19T09:58:34.686Z,39.90
2019-03-19T10:02:43.593Z,28.63
2019-03-19T10:06:51.754Z,21.77
2019-03-19T10:10:58.137Z,27.00
2019-03-19T10:15:06.630Z,24.83
2019-03-19T10:19:13.119Z,30.43
2019-03-19T10:23:21.331Z,33.40
2019-03-19T10:27:27.757Z,33.57
2019-03-19T10:31:34.055Z,29.30
2019-03-19T10:35:43.346Z,32.33
2019-03-19T10:39:49.618Z,24.07
2019-03-19T10:43:56.541Z,20.93
2019-03-19T10:48:04.456Z,23.90
2019-03-19T10:52:11.286Z,28.40
2019-03-19T10:56:21.394Z,23.53
2019-03-19T11:00:32.199Z,38.67
2019-03-19T11:04:41.083Z,32.27
2019-03-19T11:08:48.479Z,38.20
2019-03-19T11:12:54.914Z,37.50
2019-03-19T11:17:23.544Z,34.37
2019-03-19T11:21:29.875Z,43.00
2019-03-19T11:25:36.381Z,38.77
2019-03-19T11:29:44.420Z,32.13
2019-03-19T11:33:51.770Z,21.70
2019-03-19T11:38:00.556Z,22.80
2019-03-19T11:42:07.626Z,19.87
2019-03-19T11:46:13.928Z,28.53
2019-03-19T11:50:23.939Z,30.53
2019-03-19T11:54:30.472Z,28.17
2019-03-19T11:58:42.446Z,29.87
2019-03-19T12:02:50.067Z,22.13
2019-03-19T12:06:56.433Z,23.93
2019-03-19T12:11:05.174Z,22.43
2019-03-19T12:15:11.657Z,19.70
2019-03-19T12:19:18.052Z,25.60
2019-03-19T12:23:23.718Z,24.40
2019-03-19T12:27:30.066Z,24.30
2019-03-19T12:31:36.537Z,31.70
2019-03-19T12:35:43.708Z,26.67
2019-03-19T12:39:51.026Z,26.77
2019-03-19T12:43:57.408Z,35.03
2019-03-19T12:48:24.585Z,28.87
2019-03-19T12:52:30.854Z,24.10
2019-03-19T12:56:37.181Z,27.17
2019-03-19T13:01:06.882Z,31.87
2019-03-19T13:05:13.790Z,29.43
2019-03-19T13:09:22.968Z,33.97
2019-03-19T13:13:30.846Z,28.60
2019-03-19T13:17:37.172Z,30.47
2019-03-19T13:22:05.803Z,30.33
2019-03-19T13:26:13.243Z,28.77
2019-03-19T13:30:21.300Z,29.43
2019-03-19T13:34:28.163Z,33.40
2019-03-19T13:38:35.821Z,39.60
2019-03-19T13:42:42.520Z,32.60
2019-03-19T13:46:48.927Z,32.47
2019-03-19T13:50:55.260Z,44.67
2019-03-19T13:55:01.909Z,39.90
2019-03-19T13:59:08.296Z,31.23
2019-03-19T14:03:14.991Z,31.80
2019-03-19T14:08:01.191Z,28.90
2019-03-19T14:12:08.454Z,38.67
2019-03-19T14:16:16.053Z,32.57
2019-03-19T14:21:07.170Z,31.33
2019-03-19T14:25:13.784Z,30.00
2019-03-19T14:29:23.357Z,32.63
2019-03-19T14:33:30.855Z,29.17
2019-03-19T14:37:37.320Z,23.97
2019-03-19T14:41:48.412Z,28.60
2019-03-19T14:45:55.346Z,30.83
2019-03-19T14:50:01.758Z,33.53
2019-03-19T14:54:10.946Z,31.73
2019-03-19T14:58:17.401Z,31.13
2019-03-19T15:06:34.979Z,24.83
2019-03-19T15:10:41.296Z,33.70
2019-03-19T15:14:51.451Z,30.57
2019-03-19T15:18:59.306Z,30.77
2019-03-19T15:23:09.550Z,44.70
2019-03-19T15:27:16.543Z,32.93
2019-03-19T15:31:30.065Z,21.87
2019-03-19T15:35:31.391Z,42.80
2019-03-19T15:39:40.079Z,45.13
2019-03-19T15:43:46.858Z,32.57
2019-03-19T15:47:56.147Z,32.67
2019-03-19T15:52:03.441Z,44.67
2019-03-19T15:56:12.967Z,45.53
2019-03-19T16:00:21.804Z,35.00
2019-03-19T16:04:28.815Z,36.23
2019-03-19T16:08:35.511Z,38.97
2019-03-19T16:12:42.220Z,33.90
2019-03-19T16:17:10.200Z,41.27
2019-03-19T16:21:16.971Z,34.07
2019-03-19T16:25:23.497Z,28.73
2019-03-19T16:29:31.157Z,33.87
2019-03-19T16:33:38.048Z,24.90
2019-03-19T16:41:51.679Z,33.37
2019-03-19T16:45:59.727Z,34.60
2019-03-19T16:50:07.131Z,41.43
2019-03-19T16:54:13.498Z,39.90
2019-03-19T16:58:20.940Z,46.70
2019-03-19T17:02:27.483Z,47.13
2019-03-19T17:06:35.601Z,49.50
2019-03-19T17:10:42.400Z,36.77
2019-03-19T17:15:11.076Z,42.87
2019-03-19T17:19:17.666Z,39.53
2019-03-19T17:23:31.634Z,47.77
2019-03-19T17:27:38.028Z,40.40
2019-03-19T17:31:47.608Z,41.90
2019-03-19T17:35:54.035Z,39.93
2019-03-19T17:40:00.791Z,40.67
2019-03-19T17:44:07.143Z,40.90
2019-03-19T17:48:16.414Z,41.93
2019-03-19T17:52:22.516Z,58.17
2019-03-19T17:56:29.091Z,41.53
2019-03-19T18:00:36.735Z,48.87
2019-03-19T18:04:43.273Z,47.67
2019-03-19T18:08:48.926Z,48.47
2019-03-19T18:12:56.390Z,53.47
2019-03-19T18:17:02.846Z,51.93
2019-03-19T18:21:09.794Z,55.00
2019-03-19T18:25:20.578Z,51.23
2019-03-19T18:29:27.870Z,45.23
2019-03-19T18:33:34.372Z,50.37
2019-03-19T18:37:41.921Z,43.67
2019-03-19T18:41:50.412Z,50.47
2019-03-19T18:45:58.041Z,52.30
2019-03-19T18:50:08.911Z,54.57
2019-03-19T18:54:17.098Z,58.87
2019-03-19T18:58:25.327Z,53.37
2019-03-19T19:02:33.137Z,57.03
2019-03-19T19:06:39.943Z,57.23
2019-03-19T19:11:08.848Z,54.90
2019-03-19T19:15:16.224Z,62.47
2019-03-19T19:19:26.462Z,64.13
2019-03-19T19:23:37.274Z,68.70
2019-03-19T19:27:45.371Z,70.80
2019-03-19T19:36:05.140Z,66.10
2019-03-19T19:40:20.811Z,66.77
2019-03-19T19:44:29.963Z,60.87
2019-03-19T19:48:38.752Z,71.53
2019-03-19T19:52:45.571Z,73.20
2019-03-19T19:56:52.235Z,67.50
2019-03-19T20:01:20.099Z,60.17
2019-03-19T20:05:27.127Z,73.27
2019-03-19T20:09:35.990Z,62.17
2019-03-19T20:13:44.338Z,57.40
2019-03-19T20:17:51.063Z,80.63
2019-03-19T20:21:59.906Z,66.07
2019-03-19T20:26:07.934Z,65.37
2019-03-19T20:30:18.925Z,61.07
2019-03-19T20:34:37.577Z,58.20
2019-03-19T20:38:45.523Z,61.50
2019-03-19T20:42:54.250Z,65.87
2019-03-19T20:47:22.297Z,68.23
2019-03-19T20:51:29.193Z,68.67
2019-03-19T20:55:36.639Z,66.97
2019-03-19T20:59:53.022Z,59.87
2019-03-19T21:03:59.527Z,54.27
2019-03-19T21:08:39.195Z,63.87
2019-03-19T21:12:47.376Z,59.80
2019-03-19T21:16:57.297Z,66.53
2019-03-19T21:21:03.346Z,73.23
2019-03-19T21:25:11.148Z,65.13
2019-03-19T21:29:20.401Z,59.13
2019-03-19T21:33:28.348Z,57.30
2019-03-19T21:37:34.317Z,64.80
2019-03-19T21:41:41.819Z,77.23
2019-03-19T21:45:48.063Z,68.37
2019-03-19T21:49:54.930Z,66.63
2019-03-19T21:54:01.290Z,70.50
2019-03-19T21:58:09.536Z,83.40
2019-03-19T22:02:15.985Z,71.23
2019-03-19T22:06:22.785Z,83.60
2019-03-19T22:10:31.236Z,63.70
2019-03-19T22:14:38.519Z,81.63
2019-03-19T22:18:47.737Z,73.80
2019-03-19T22:22:56.432Z,70.60
2019-03-19T22:27:03.861Z,79.63
2019-03-19T22:31:11.721Z,79.30
2019-03-19T22:35:20.871Z,75.73
2019-03-19T22:39:27.604Z,74.30
2019-03-19T22:43:54.923Z,84.23
2019-03-19T22:48:02.312Z,75.37
2019-03-19T22:52:08.681Z,80.87
2019-03-19T22:56:16.005Z,72.13
2019-03-19T23:00:41.776Z,78.37
2019-03-19T23:04:51.116Z,75.33
2019-03-19T23:08:57.439Z,73.77
2019-03-19T23:13:05.313Z,73.93
2019-03-19T23:17:11.803Z,72.70
2019-03-19T23:21:18.810Z,80.87
2019-03-19T23:25:26.584Z,63.50
2019-03-19T23:29:33.004Z,74.60
2019-03-19T23:33:39.454Z,76.67
2019-03-19T23:37:48.119Z,81.40
2019-03-19T23:41:54.520Z,72.80
2019-03-19T23:46:01.022Z,67.80
2019-03-19T23:50:10.837Z,80.40
2019-03-19T23:54:18.325Z,72.30
2019-03-19T23:58:26.198Z,70.60
